createdAt,value
2023-03-04T00:00:49.015Z,79.59
2023-03-04T00:04:49.529Z,79.57
2023-03-04T00:08:50.317Z,80.44
2023-03-04T00:12:50.964Z,80.23
2023-03-04T00:16:54.410Z,80.35
2023-03-04T00:20:55.714Z,81.08
2023-03-04T00:24:56.302Z,80.89
2023-03-04T00:28:56.958Z,80.90
2023-03-04T00:33:00.343Z,80.83
2023-03-04T00:37:01.726Z,80.90
2023-03-04T00:41:02.005Z,81.02
2023-03-04T00:45:02.720Z,81.87
2023-03-04T00:49:08.720Z,81.82
2023-03-04T00:53:10.189Z,82.14
2023-03-04T00:57:11.182Z,82.65
2023-03-04T01:01:12.219Z,82.83
2023-03-04T01:05:16.882Z,82.66
2023-03-04T01:09:17.587Z,82.37
2023-03-04T01:13:17.918Z,82.83
2023-03-04T01:17:18.505Z,83.04
2023-03-04T01:21:22.111Z,83.27
2023-03-04T01:25:23.858Z,83.93
2023-03-04T01:29:24.374Z,84.18
2023-03-04T01:33:25.323Z,84.45
2023-03-04T01:37:28.703Z,84.86
2023-03-04T01:41:30.550Z,85.05
2023-03-04T01:45:40.270Z,84.99
2023-03-04T01:49:42.875Z,85.38
2023-03-04T01:53:47.970Z,85.44
2023-03-04T01:57:51.070Z,85.15
2023-03-04T02:01:55.797Z,85.28
2023-03-04T02:05:58.382Z,85.85
2023-03-04T02:10:04.483Z,85.65
2023-03-04T02:14:05.493Z,85.90
2023-03-04T02:18:17.780Z,86.56
2023-03-04T02:22:18.973Z,86.49
2023-03-04T02:26:24.431Z,86.31
2023-03-04T02:30:28.935Z,87.46
2023-03-04T02:34:34.632Z,86.86
2023-03-04T02:38:37.181Z,87.00
2023-03-04T02:42:41.272Z,87.24
2023-03-04T02:46:42.950Z,87.31
2023-03-04T02:50:49.549Z,87.46
2023-03-04T02:54:50.164Z,86.87
2023-03-04T02:58:54.376Z,86.76
2023-03-04T03:02:57.264Z,86.73
2023-03-04T03:06:58.391Z,87.17
2023-03-04T03:10:59.790Z,87.13
2023-03-04T03:15:03.582Z,87.30
2023-03-04T03:19:05.263Z,87.44
2023-03-04T03:23:07.827Z,87.95
2023-03-04T03:27:09.552Z,87.72
2023-03-04T03:31:13.214Z,87.60
2023-03-04T03:35:14.631Z,88.37
2023-03-04T03:39:15.814Z,88.64
2023-03-04T03:43:16.538Z,88.30
2023-03-04T03:47:20.133Z,88.31
2023-03-04T03:51:20.805Z,88.58
2023-03-04T03:55:21.292Z,88.93
2023-03-04T03:59:21.634Z,89.58
2023-03-04T04:03:25.028Z,89.31
2023-03-04T04:07:25.536Z,89.34
2023-03-04T04:11:26.352Z,89.48
2023-03-04T04:15:27.813Z,89.63
2023-03-04T04:19:31.695Z,89.49
2023-03-04T04:23:32.135Z,89.57
2023-03-04T04:27:32.385Z,89.46
2023-03-04T04:31:33.251Z,89.57
2023-03-04T04:35:39.058Z,89.39
2023-03-04T04:39:42.118Z,89.70
2023-03-04T04:43:43.749Z,89.74
2023-03-04T04:47:44.376Z,90.51
2023-03-04T04:51:47.883Z,91.16
2023-03-04T04:55:48.620Z,90.62
2023-03-04T04:59:49.091Z,89.58
2023-03-04T05:03:49.978Z,88.48
2023-03-04T05:07:53.472Z,87.53
2023-03-04T05:11:53.885Z,86.82
2023-03-04T05:15:56.599Z,86.38
2023-03-04T05:19:57.282Z,86.69
2023-03-04T05:24:01.736Z,86.39
2023-03-04T05:28:05.099Z,86.51
2023-03-04T05:32:05.919Z,87.21
2023-03-04T05:36:10.386Z,87.07
2023-03-04T05:40:16.861Z,86.87
2023-03-04T05:44:17.424Z,87.08
2023-03-04T05:48:17.846Z,87.08
2023-03-04T05:52:18.523Z,87.24
2023-03-04T05:56:24.286Z,88.05
2023-03-04T06:00:24.726Z,89.07
2023-03-04T06:04:25.086Z,88.61
2023-03-04T06:08:26.081Z,88.09
2023-03-04T06:12:30.055Z,87.25
2023-03-04T06:16:30.863Z,86.40
2023-03-04T06:20:31.552Z,86.46
2023-03-04T06:24:32.041Z,86.12
2023-03-04T06:28:35.364Z,85.75
2023-03-04T06:32:36.124Z,85.60
2023-03-04T06:36:36.624Z,84.98
2023-03-04T06:40:37.103Z,84.52
2023-03-04T06:44:41.310Z,84.44
2023-03-04T06:48:41.970Z,83.97
2023-03-04T06:52:43.029Z,83.82
2023-03-04T06:56:46.477Z,83.05
2023-03-04T07:00:49.734Z,82.80
2023-03-04T07:04:50.487Z,82.23
2023-03-04T07:08:51.205Z,82.55
2023-03-04T07:12:51.808Z,82.13
2023-03-04T07:16:55.284Z,81.82
2023-03-04T07:20:56.650Z,81.81
2023-03-04T07:24:57.169Z,81.74
2023-03-04T07:29:00.174Z,81.01
2023-03-04T07:33:04.324Z,80.25
2023-03-04T07:37:05.508Z,80.18
2023-03-04T07:41:06.516Z,80.25
2023-03-04T07:45:09.077Z,79.26
2023-03-04T07:49:14.452Z,79.18
2023-03-04T07:53:15.122Z,79.81
2023-03-04T07:57:15.884Z,79.18
2023-03-04T08:01:19.997Z,78.89
2023-03-04T08:05:23.089Z,78.87
2023-03-04T08:09:23.710Z,78.62
2023-03-04T08:13:25.924Z,77.92
2023-03-04T08:17:26.901Z,77.65
2023-03-04T08:21:32.015Z,77.90
2023-03-04T08:25:32.989Z,77.33
2023-03-04T08:29:34.547Z,77.56
2023-03-04T08:33:35.470Z,77.37
2023-03-04T08:37:39.460Z,76.69
2023-03-04T08:41:40.206Z,76.63
2023-03-04T08:45:40.858Z,76.04
2023-03-04T08:49:41.487Z,75.05
2023-03-04T08:53:45.472Z,74.92
2023-03-04T08:57:46.399Z,73.50
2023-03-04T09:01:47.796Z,73.10
2023-03-04T09:05:49.352Z,73.06
2023-03-04T09:09:53.119Z,72.99
2023-03-04T09:13:54.059Z,72.93
2023-03-04T09:17:54.630Z,72.08
2023-03-04T09:21:56.004Z,71.57
2023-03-04T09:26:00.661Z,71.43
2023-03-04T09:30:01.254Z,70.98
2023-03-04T09:34:04.205Z,71.48
2023-03-04T09:38:04.831Z,71.40
2023-03-04T09:42:11.527Z,71.06
2023-03-04T09:46:19.036Z,69.72
2023-03-04T09:50:23.257Z,69.55
2023-03-04T09:54:55.131Z,68.86
2023-03-04T09:59:17.443Z,68.71
2023-03-04T10:03:23.866Z,68.40
2023-03-04T10:07:32.649Z,68.31
2023-03-04T10:11:43.072Z,70.34
2023-03-04T10:15:51.417Z,69.75
2023-03-04T10:20:00.889Z,71.16
2023-03-04T10:24:04.203Z,71.16
2023-03-04T10:28:09.399Z,74.26
2023-03-04T10:32:17.248Z,73.27
2023-03-04T10:36:43.614Z,72.79
2023-03-04T10:40:46.017Z,72.42
2023-03-04T10:44:57.723Z,72.58
2023-03-04T10:49:02.472Z,71.79
2023-03-04T10:53:03.332Z,70.98
2023-03-04T10:57:08.841Z,68.70
2023-03-04T11:01:10.136Z,68.27
2023-03-04T11:05:23.920Z,67.02
2023-03-04T11:09:28.361Z,66.31
2023-03-04T11:13:30.058Z,67.73
2023-03-04T11:17:42.218Z,68.45
2023-03-04T11:21:46.060Z,69.01
2023-03-04T11:25:53.014Z,70.87
2023-03-04T11:30:00.955Z,70.53
2023-03-04T11:34:13.582Z,70.70
2023-03-04T11:38:24.292Z,70.82
2023-03-04T11:42:38.613Z,70.46
2023-03-04T11:47:00.029Z,70.08
2023-03-04T11:51:06.345Z,70.81
2023-03-04T11:55:39.706Z,70.35
2023-03-04T12:00:00.239Z,69.99
2023-03-04T12:04:33.777Z,69.75
2023-03-04T12:09:06.600Z,69.33
2023-03-04T12:13:41.132Z,69.20
2023-03-04T12:18:16.500Z,69.02
2023-03-04T12:22:35.989Z,67.49
2023-03-04T12:26:43.788Z,68.94
2023-03-04T12:31:10.696Z,68.68
2023-03-04T12:35:45.792Z,68.33
2023-03-04T12:40:09.132Z,68.88
2023-03-04T12:44:20.203Z,68.59
2023-03-04T12:48:35.828Z,68.98
2023-03-04T12:52:54.070Z,68.83
2023-03-04T12:57:00.687Z,69.06
2023-03-04T13:01:16.138Z,68.72
2023-03-04T13:06:05.230Z,68.54
2023-03-04T13:10:15.185Z,69.02
2023-03-04T13:14:33.656Z,67.81
2023-03-04T13:18:39.707Z,68.41
2023-03-04T13:22:55.458Z,67.19
2023-03-04T13:26:56.190Z,67.80
2023-03-04T13:31:26.708Z,68.25
2023-03-04T13:35:54.733Z,67.48
2023-03-04T13:40:36.782Z,67.94
2023-03-04T13:45:05.141Z,68.35
2023-03-04T13:49:11.164Z,68.36
2023-03-04T13:53:50.156Z,68.69
2023-03-04T13:57:55.553Z,68.58
2023-03-04T14:02:16.610Z,68.69
2023-03-04T14:06:22.930Z,69.58
2023-03-04T14:10:27.066Z,67.43
2023-03-04T14:14:36.040Z,67.60
2023-03-04T14:18:38.618Z,66.86
2023-03-04T14:22:44.916Z,67.21
2023-03-04T14:26:45.314Z,68.42
2023-03-04T14:30:57.304Z,67.75
2023-03-04T14:35:02.484Z,67.17
2023-03-04T14:39:07.436Z,67.56
2023-03-04T14:43:16.269Z,66.75
2023-03-04T14:47:29.140Z,66.66
2023-03-04T14:51:39.785Z,67.63
2023-03-04T14:55:41.226Z,67.78
2023-03-04T14:59:42.123Z,68.51
2023-03-04T15:03:47.915Z,68.79
2023-03-04T15:07:57.166Z,68.88
2023-03-04T15:12:06.290Z,68.68
2023-03-04T15:16:07.171Z,69.42
2023-03-04T15:20:29.309Z,69.15
2023-03-04T15:24:30.776Z,69.18
2023-03-04T15:28:38.050Z,69.56
2023-03-04T15:32:38.625Z,69.68
2023-03-04T15:36:43.041Z,69.31
2023-03-04T15:40:46.716Z,69.40
2023-03-04T15:44:47.542Z,69.24
2023-03-04T15:48:48.779Z,69.71
2023-03-04T15:52:53.511Z,69.60
2023-03-04T15:56:54.007Z,68.66
2023-03-04T16:00:54.399Z,69.14
2023-03-04T16:04:55.717Z,70.04
2023-03-04T16:08:59.664Z,69.73
2023-03-04T16:13:00.897Z,70.29
2023-03-04T16:17:02.427Z,69.99
2023-03-04T16:21:06.200Z,70.17
2023-03-04T16:25:12.621Z,70.27
2023-03-04T16:29:13.763Z,70.61
2023-03-04T16:33:17.958Z,71.78
2023-03-04T16:37:23.296Z,72.16
2023-03-04T16:41:32.246Z,71.99
2023-03-04T16:45:33.152Z,72.21
2023-03-04T16:49:33.610Z,72.75
2023-03-04T16:53:37.987Z,73.08
2023-03-04T16:57:41.364Z,73.85
2023-03-04T17:01:42.220Z,73.73
2023-03-04T17:05:43.033Z,73.78
2023-03-04T17:09:44.421Z,74.46
2023-03-04T17:13:48.107Z,75.24
2023-03-04T17:17:49.083Z,76.10
2023-03-04T17:21:49.540Z,75.82
2023-03-04T17:25:58.226Z,75.73
2023-03-04T17:30:01.496Z,76.37
2023-03-04T17:34:01.813Z,76.01
2023-03-04T17:38:02.474Z,76.13
2023-03-04T17:42:03.035Z,76.56
2023-03-04T17:46:13.588Z,76.51
2023-03-04T17:50:15.827Z,76.66
2023-03-04T17:54:16.585Z,76.62
2023-03-04T17:58:17.379Z,77.09
2023-03-04T18:02:20.929Z,77.23
2023-03-04T18:06:22.891Z,77.12
2023-03-04T18:10:23.924Z,77.07
2023-03-04T18:14:24.268Z,77.46
2023-03-04T18:18:27.752Z,77.46
2023-03-04T18:22:28.311Z,76.99
2023-03-04T18:26:29.322Z,77.36
2023-03-04T18:30:30.071Z,77.69
2023-03-04T18:34:33.627Z,77.23
2023-03-04T18:38:34.552Z,77.77
2023-03-04T18:42:35.733Z,78.28
2023-03-04T18:46:45.820Z,78.15
2023-03-04T18:50:51.494Z,78.14
2023-03-04T18:54:53.472Z,78.97
2023-03-04T18:58:54.993Z,79.46
2023-03-04T19:02:59.694Z,78.88
2023-03-04T19:07:03.433Z,78.65
2023-03-04T19:11:06.024Z,78.77
2023-03-04T19:15:08.725Z,78.85
2023-03-04T19:19:09.469Z,78.70
2023-03-04T19:23:13.761Z,78.94
2023-03-04T19:27:14.080Z,78.45
2023-03-04T19:31:15.357Z,78.47
2023-03-04T19:35:16.046Z,78.07
2023-03-04T19:39:19.678Z,78.20
2023-03-04T19:43:20.302Z,78.57
2023-03-04T19:47:20.866Z,78.17
2023-03-04T19:51:26.284Z,77.76
2023-03-04T19:55:29.934Z,77.70
2023-03-04T19:59:30.635Z,78.22
2023-03-04T20:03:31.218Z,78.08
2023-03-04T20:07:31.589Z,78.27
2023-03-04T20:11:41.474Z,78.20
2023-03-04T20:15:51.418Z,78.44
2023-03-04T20:19:52.376Z,79.15
2023-03-04T20:23:53.391Z,78.60
2023-03-04T20:27:57.657Z,78.69
2023-03-04T20:31:58.848Z,79.24
2023-03-04T20:35:59.380Z,78.52
2023-03-04T20:39:59.853Z,78.31
2023-03-04T20:44:04.709Z,78.43
2023-03-04T20:48:05.428Z,78.34
2023-03-04T20:52:06.740Z,78.89
2023-03-04T20:56:08.048Z,78.47
2023-03-04T21:00:14.594Z,78.35
2023-03-04T21:04:16.052Z,78.42
2023-03-04T21:08:16.824Z,78.42
2023-03-04T21:12:17.176Z,78.32
2023-03-04T21:16:21.228Z,78.76
2023-03-04T21:20:21.531Z,79.09
2023-03-04T21:24:24.937Z,79.83
2023-03-04T21:28:26.595Z,79.60
2023-03-04T21:32:30.589Z,79.35
2023-03-04T21:36:31.160Z,79.57
2023-03-04T21:40:31.770Z,79.29
2023-03-04T21:44:45.458Z,79.60
2023-03-04T21:48:54.952Z,79.27
2023-03-04T21:52:55.449Z,80.01
2023-03-04T21:56:55.979Z,79.76
2023-03-04T22:00:57.703Z,80.01
2023-03-04T22:05:01.032Z,80.34
2023-03-04T22:09:02.577Z,80.30
2023-03-04T22:13:03.192Z,80.26
2023-03-04T22:17:03.667Z,80.76
2023-03-04T22:21:11.041Z,80.81
2023-03-04T22:25:12.614Z,80.56
2023-03-04T22:29:13.309Z,80.98
2023-03-04T22:33:13.682Z,80.91
2023-03-04T22:37:16.961Z,81.09
2023-03-04T22:41:19.939Z,81.05
2023-03-04T22:45:21.776Z,81.38
2023-03-04T22:49:22.256Z,82.12
2023-03-04T22:53:26.139Z,81.52
2023-03-04T22:57:27.158Z,81.68
2023-03-04T23:01:28.288Z,82.21
2023-03-04T23:05:29.293Z,81.91
2023-03-04T23:09:32.892Z,81.81
2023-03-04T23:13:33.815Z,81.69
2023-03-04T23:17:34.336Z,82.14
2023-03-04T23:21:35.670Z,82.20
2023-03-04T23:25:41.826Z,82.75
2023-03-04T23:29:42.293Z,83.03
2023-03-04T23:33:43.410Z,82.65
2023-03-04T23:37:43.830Z,82.78
2023-03-04T23:41:47.037Z,83.13
2023-03-04T23:45:47.588Z,82.63
2023-03-04T23:49:47.994Z,83.04
2023-03-04T23:53:49.198Z,83.37
2023-03-04T23:57:52.735Z,83.36
